createdAt,value
2022-10-19T00:01:08.654Z,101579.44
2022-10-19T00:03:36.153Z,101582.56
2022-10-19T00:06:16.743Z,101575.94
2022-10-19T00:08:44.091Z,101576.59
2022-10-19T00:11:11.277Z,101578.69
2022-10-19T00:13:38.083Z,101580.50
2022-10-19T00:16:13.051Z,101583.13
2022-10-19T00:18:41.221Z,101587.94
2022-10-19T00:21:09.568Z,101578.66
2022-10-19T00:23:36.719Z,101576.31
2022-10-19T00:26:03.842Z,101584.94
2022-10-19T00:28:30.590Z,101585.13
2022-10-19T00:30:57.250Z,101584.16
2022-10-19T00:33:23.789Z,101580.28
2022-10-19T00:35:52.722Z,101578.59
2022-10-19T00:38:21.218Z,101573.84
2022-10-19T00:40:48.696Z,101572.81
2022-10-19T00:43:21.222Z,101572.50
2022-10-19T00:45:50.383Z,101574.97
2022-10-19T00:48:34.745Z,101574.50
2022-10-19T00:51:02.078Z,101568.81
2022-10-19T00:53:30.571Z,101577.72
2022-10-19T00:55:58.538Z,101565.03
2022-10-19T00:58:25.040Z,101566.06
2022-10-19T01:00:54.084Z,101565.41
2022-10-19T01:03:25.173Z,101564.94
2022-10-19T01:05:52.845Z,101553.28
2022-10-19T01:08:20.099Z,101556.41
2022-10-19T01:10:55.168Z,101555.94
2022-10-19T01:14:06.429Z,101561.81
2022-10-19T01:17:05.534Z,101562.34
2022-10-19T01:20:09.077Z,101552.59
2022-10-19T01:23:10.258Z,101551.66
2022-10-19T01:25:36.608Z,101548.22
2022-10-19T01:28:08.759Z,101545.38
2022-10-19T01:30:56.313Z,101538.63
2022-10-19T01:33:40.238Z,101538.16
2022-10-19T01:36:17.917Z,101534.44
2022-10-19T01:38:59.238Z,101533.78
2022-10-19T01:41:34.758Z,101519.38
2022-10-19T01:44:21.398Z,101524.00
2022-10-19T01:46:54.619Z,101520.47
2022-10-19T01:49:37.635Z,101516.47
2022-10-19T01:52:07.124Z,101525.06
2022-10-19T01:54:42.701Z,101513.41
2022-10-19T01:57:12.792Z,101513.34
2022-10-19T01:59:39.679Z,101507.22
2022-10-19T02:02:11.743Z,101513.19
2022-10-19T02:04:38.471Z,101513.41
2022-10-19T02:07:07.679Z,101515.06
2022-10-19T02:09:36.239Z,101519.00
2022-10-19T02:15:10.401Z,101522.06
2022-10-19T02:17:42.055Z,101520.00
2022-10-19T02:20:08.955Z,101526.16
2022-10-19T02:22:35.992Z,101518.72
2022-10-19T02:25:03.420Z,101514.00
2022-10-19T02:27:32.604Z,101505.91
2022-10-19T02:29:59.149Z,101517.16
2022-10-19T02:32:26.823Z,101517.88
2022-10-19T02:34:53.539Z,101517.66
2022-10-19T02:37:22.164Z,101512.72
2022-10-19T02:39:53.100Z,101513.94
2022-10-19T02:42:31.097Z,101502.47
2022-10-19T02:45:06.818Z,101503.50
2022-10-19T02:47:41.982Z,101495.47
2022-10-19T02:50:09.500Z,101504.56
2022-10-19T02:52:40.643Z,101499.25
2022-10-19T02:55:08.529Z,101500.66
2022-10-19T02:57:35.142Z,101495.16
2022-10-19T03:00:03.475Z,101490.22
2022-10-19T03:02:30.026Z,101488.56
2022-10-19T03:04:56.433Z,101496.56
2022-10-19T03:07:22.911Z,101501.19
2022-10-19T03:09:49.901Z,101496.56
2022-10-19T03:12:16.497Z,101494.19
2022-10-19T03:14:43.254Z,101489.41
2022-10-19T03:17:10.042Z,101484.94
2022-10-19T03:19:37.246Z,101486.34
2022-10-19T03:22:04.063Z,101480.56
2022-10-19T03:24:31.520Z,101486.25
2022-10-19T03:27:00.378Z,101495.19
2022-10-19T03:29:26.828Z,101491.78
2022-10-19T03:31:54.457Z,101486.78
2022-10-19T03:34:20.972Z,101481.97
2022-10-19T03:36:47.652Z,101481.00
2022-10-19T03:39:18.022Z,101485.50
2022-10-19T03:41:44.896Z,101491.34
2022-10-19T03:44:14.121Z,101490.00
2022-10-19T03:46:40.833Z,101489.63
2022-10-19T03:49:08.934Z,101494.28
2022-10-19T03:51:37.998Z,101488.63
2022-10-19T03:54:12.553Z,101486.25
2022-10-19T03:56:39.072Z,101481.78
2022-10-19T03:59:08.081Z,101493.25
2022-10-19T04:01:43.026Z,101494.47
2022-10-19T04:04:17.569Z,101501.84
2022-10-19T04:06:48.521Z,101497.22
2022-10-19T04:09:18.483Z,101492.44
2022-10-19T04:11:48.035Z,101494.28
2022-10-19T04:14:26.742Z,101503.06
2022-10-19T04:16:59.708Z,101503.06
2022-10-19T04:19:26.136Z,101494.59
2022-10-19T04:21:52.611Z,101494.28
2022-10-19T04:24:19.380Z,101499.47
2022-10-19T04:26:48.536Z,101501.72
2022-10-19T04:29:18.965Z,101502.91
2022-10-19T04:31:46.227Z,101499.16
2022-10-19T04:34:13.984Z,101507.91
2022-10-19T04:36:40.413Z,101509.25
2022-10-19T04:39:07.869Z,101507.06
2022-10-19T04:41:35.240Z,101499.88
2022-10-19T04:44:06.651Z,101515.47
2022-10-19T04:46:33.390Z,101503.44
2022-10-19T04:48:59.793Z,101507.91
2022-10-19T04:51:27.185Z,101505.84
2022-10-19T04:53:56.932Z,101504.13
2022-10-19T04:56:29.241Z,101502.91
2022-10-19T04:59:00.043Z,101501.03
2022-10-19T05:01:30.517Z,101501.03
2022-10-19T05:03:59.812Z,101490.44
2022-10-19T05:06:29.872Z,101488.06
2022-10-19T05:08:58.090Z,101489.75
2022-10-19T05:11:24.624Z,101487.75
2022-10-19T05:13:51.185Z,101490.47
2022-10-19T05:16:19.926Z,101481.59
2022-10-19T05:18:58.619Z,101481.59
2022-10-19T05:21:27.662Z,101476.88
2022-10-19T05:23:55.780Z,101469.50
2022-10-19T05:26:25.201Z,101473.44
2022-10-19T05:29:02.664Z,101464.53
2022-10-19T05:31:32.410Z,101468.31
2022-10-19T05:34:00.009Z,101471.53
2022-10-19T05:36:35.391Z,101472.19
2022-10-19T05:39:25.285Z,101467.59
2022-10-19T05:41:53.058Z,101475.81
2022-10-19T05:44:22.095Z,101467.75
2022-10-19T05:46:49.580Z,101470.84
2022-10-19T05:49:20.283Z,101468.81
2022-10-19T05:51:49.402Z,101471.22
2022-10-19T05:54:16.429Z,101478.59
2022-10-19T05:56:43.420Z,101468.66
2022-10-19T05:59:14.419Z,101472.09
2022-10-19T06:01:40.900Z,101477.38
2022-10-19T06:04:07.452Z,101482.50
2022-10-19T06:06:34.576Z,101482.31
2022-10-19T06:09:01.221Z,101477.03
2022-10-19T06:11:31.346Z,101484.38
2022-10-19T06:13:59.908Z,101484.38
2022-10-19T06:16:27.463Z,101483.69
2022-10-19T06:18:55.471Z,101486.44
2022-10-19T06:21:24.100Z,101475.84
2022-10-19T06:23:51.773Z,101478.94
2022-10-19T06:26:18.965Z,101480.56
2022-10-19T06:28:51.035Z,101485.38
2022-10-19T06:31:20.925Z,101482.94
2022-10-19T06:33:49.381Z,101480.50
2022-10-19T06:36:22.306Z,101481.84
2022-10-19T06:38:49.269Z,101486.50
2022-10-19T06:41:18.685Z,101489.19
2022-10-19T06:43:49.885Z,101490.72
2022-10-19T06:46:20.503Z,101489.50
2022-10-19T06:48:57.428Z,101488.59
2022-10-19T06:51:25.983Z,101494.25
2022-10-19T06:53:56.528Z,101491.38
2022-10-19T06:56:30.003Z,101499.53
2022-10-19T06:58:58.990Z,101500.53
2022-10-19T07:01:27.993Z,101502.94
2022-10-19T07:03:56.956Z,101503.06
2022-10-19T07:06:23.958Z,101504.28
2022-10-19T07:08:50.462Z,101503.59
2022-10-19T07:11:19.879Z,101509.22
2022-10-19T07:13:48.640Z,101509.59
2022-10-19T07:16:20.640Z,101517.06
2022-10-19T07:18:48.595Z,101513.75
2022-10-19T07:21:16.443Z,101513.88
2022-10-19T07:23:47.204Z,101514.75
2022-10-19T07:26:19.599Z,101525.38
2022-10-19T07:28:49.770Z,101523.31
2022-10-19T07:31:20.173Z,101525.00
2022-10-19T07:33:47.715Z,101532.66
2022-10-19T07:36:14.290Z,101531.78
2022-10-19T07:38:40.837Z,101529.41
2022-10-19T07:41:14.107Z,101525.59
2022-10-19T07:43:42.091Z,101527.16
2022-10-19T07:46:12.031Z,101539.00
2022-10-19T07:48:38.444Z,101529.38
2022-10-19T07:51:07.775Z,101534.50
2022-10-19T07:53:35.613Z,101538.28
2022-10-19T07:56:08.681Z,101531.47
2022-10-19T07:58:36.458Z,101519.63
2022-10-19T08:01:07.149Z,101527.88
2022-10-19T08:06:22.064Z,101527.31
2022-10-19T08:08:49.029Z,101523.47
2022-10-19T08:11:26.711Z,101529.38
2022-10-19T08:13:58.553Z,101526.91
2022-10-19T08:16:32.703Z,101529.97
2022-10-19T08:19:02.319Z,101523.50
2022-10-19T08:21:30.058Z,101521.25
2022-10-19T08:23:58.860Z,101515.94
2022-10-19T08:26:28.983Z,101518.41
2022-10-19T08:29:16.281Z,101517.31
2022-10-19T08:31:44.250Z,101524.97
2022-10-19T08:34:11.381Z,101517.50
2022-10-19T08:36:37.940Z,101514.00
2022-10-19T08:39:07.910Z,101513.22
2022-10-19T08:41:40.589Z,101522.88
2022-10-19T08:44:34.574Z,101525.13
2022-10-19T08:47:16.508Z,101516.44
2022-10-19T08:49:45.215Z,101516.34
2022-10-19T08:52:34.583Z,101515.03
2022-10-19T08:55:07.271Z,101507.16
2022-10-19T08:57:51.515Z,101512.44
2022-10-19T09:00:32.189Z,101509.31
2022-10-19T09:03:10.907Z,101511.22
2022-10-19T09:06:03.604Z,101508.38
2022-10-19T09:08:30.444Z,101500.03
2022-10-19T09:10:57.444Z,101501.06
2022-10-19T09:13:46.962Z,101500.88
2022-10-19T09:16:21.053Z,101504.28
2022-10-19T09:18:47.510Z,101502.16
2022-10-19T09:21:15.856Z,101505.88
2022-10-19T09:24:06.862Z,101492.59
2022-10-19T09:26:51.329Z,101489.59
2022-10-19T09:29:21.179Z,101488.63
2022-10-19T09:31:53.320Z,101487.38
2022-10-19T09:34:31.500Z,101491.44
2022-10-19T09:36:58.991Z,101489.25
2022-10-19T09:39:29.552Z,101492.59
2022-10-19T09:42:18.519Z,101493.00
2022-10-19T09:44:45.008Z,101490.69
2022-10-19T09:47:36.534Z,101496.47
2022-10-19T09:50:17.030Z,101479.94
2022-10-19T09:52:45.843Z,101490.59
2022-10-19T09:55:15.687Z,101482.00
2022-10-19T09:57:46.399Z,101483.72
2022-10-19T10:00:19.092Z,101484.50
2022-10-19T10:02:54.308Z,101487.84
2022-10-19T10:05:33.877Z,101481.56
2022-10-19T10:08:01.652Z,101482.91
2022-10-19T10:10:39.315Z,101479.94
2022-10-19T10:13:06.552Z,101477.34
2022-10-19T10:15:47.065Z,101471.66
2022-10-19T10:18:17.321Z,101477.53
2022-10-19T10:21:01.501Z,101480.47
2022-10-19T10:23:32.139Z,101469.69
2022-10-19T10:25:59.986Z,101483.59
2022-10-19T10:28:29.106Z,101479.19
2022-10-19T10:31:09.673Z,101474.09
2022-10-19T10:33:44.909Z,101485.28
2022-10-19T10:36:12.697Z,101482.28
2022-10-19T10:38:47.208Z,101475.50
2022-10-19T10:41:20.648Z,101471.88
2022-10-19T10:44:20.799Z,101466.63
2022-10-19T10:46:58.640Z,101457.13
2022-10-19T10:49:38.242Z,101456.88
2022-10-19T10:52:09.577Z,101456.22
2022-10-19T10:54:41.410Z,101447.56
2022-10-19T10:57:13.049Z,101453.19
2022-10-19T10:59:47.991Z,101450.44
2022-10-19T11:02:20.423Z,101447.94
2022-10-19T11:04:56.336Z,101449.25
2022-10-19T11:07:29.015Z,101450.09
2022-10-19T11:10:17.959Z,101445.06
2022-10-19T11:12:51.899Z,101437.91
2022-10-19T11:18:46.585Z,101434.72
2022-10-19T11:21:37.654Z,101426.00
2022-10-19T11:24:17.530Z,101417.88
2022-10-19T11:26:53.614Z,101414.59
2022-10-19T11:29:32.109Z,101414.06
2022-10-19T11:31:58.648Z,101404.28
2022-10-19T11:34:44.043Z,101403.41
2022-10-19T11:37:49.435Z,101403.06
2022-10-19T11:40:30.819Z,101397.53
2022-10-19T11:43:04.864Z,101389.09
2022-10-19T11:46:08.291Z,101385.72
2022-10-19T11:49:06.204Z,101374.97
2022-10-19T11:51:47.031Z,101374.16
2022-10-19T11:54:22.924Z,101363.31
2022-10-19T11:57:03.560Z,101362.03
2022-10-19T12:00:15.128Z,101363.38
2022-10-19T12:02:53.764Z,101363.19
2022-10-19T12:05:31.168Z,101363.84
2022-10-19T12:08:25.973Z,101364.25
2022-10-19T12:10:55.370Z,101363.00
2022-10-19T12:13:30.093Z,101371.94
2022-10-19T12:15:59.482Z,101370.66
2022-10-19T12:18:35.637Z,101356.03
2022-10-19T12:21:10.771Z,101363.00
2022-10-19T12:23:47.077Z,101358.78
2022-10-19T12:28:56.049Z,101365.38
2022-10-19T12:31:27.144Z,101356.69
2022-10-19T12:34:16.289Z,101349.91
2022-10-19T12:36:55.397Z,101345.84
2022-10-19T12:39:30.492Z,101343.34
2022-10-19T12:42:05.018Z,101337.84
2022-10-19T12:44:40.600Z,101329.53
2022-10-19T12:47:11.870Z,101330.38
2022-10-19T12:50:10.671Z,101322.78
2022-10-19T12:52:39.168Z,101324.88
2022-10-19T12:55:17.573Z,101318.75
2022-10-19T12:57:48.175Z,101320.47
2022-10-19T13:00:30.117Z,101311.53
2022-10-19T13:03:05.427Z,101310.72
2022-10-19T13:05:33.824Z,101302.03
2022-10-19T13:08:08.079Z,101293.53
2022-10-19T13:10:38.398Z,101282.94
2022-10-19T13:13:07.080Z,101289.31
2022-10-19T13:15:36.500Z,101284.03
2022-10-19T13:18:14.160Z,101281.94
2022-10-19T13:23:11.927Z,101277.91
2022-10-19T13:25:42.249Z,101280.84
2022-10-19T13:28:12.591Z,101270.06
2022-10-19T13:30:38.903Z,101258.81
2022-10-19T13:33:34.717Z,101260.28
2022-10-19T13:36:02.251Z,101256.25
2022-10-19T13:38:33.468Z,101249.06
2022-10-19T13:41:22.748Z,101251.81
2022-10-19T13:43:56.034Z,101245.22
2022-10-19T13:46:28.487Z,101244.38
2022-10-19T13:49:19.710Z,101244.78
2022-10-19T13:52:09.226Z,101238.47
2022-10-19T13:54:55.654Z,101229.53
2022-10-19T13:57:50.016Z,101233.38
2022-10-19T14:00:23.014Z,101227.00
2022-10-19T14:02:53.591Z,101238.03
2022-10-19T14:05:32.166Z,101219.38
2022-10-19T14:08:19.807Z,101208.53
2022-10-19T14:11:00.569Z,101210.03
2022-10-19T14:13:27.946Z,101209.16
2022-10-19T14:15:57.083Z,101207.47
2022-10-19T14:18:25.320Z,101220.41
2022-10-19T14:21:03.874Z,101214.06
2022-10-19T14:23:31.579Z,101214.91
2022-10-19T14:26:01.648Z,101209.16
2022-10-19T14:28:31.358Z,101205.75
2022-10-19T14:31:01.973Z,101204.50
2022-10-19T14:33:35.076Z,101184.13
2022-10-19T14:36:02.393Z,101175.88
2022-10-19T14:38:36.673Z,101178.44
2022-10-19T14:41:06.193Z,101183.50
2022-10-19T14:43:34.489Z,101178.19
2022-10-19T14:46:06.982Z,101174.59
2022-10-19T14:48:45.462Z,101177.38
2022-10-19T14:51:31.112Z,101181.81
2022-10-19T14:54:05.715Z,101173.13
2022-10-19T14:56:55.645Z,101170.59
2022-10-19T14:59:47.821Z,101180.13
2022-10-19T15:02:26.376Z,101162.09
2022-10-19T15:04:57.150Z,101167.00
2022-10-19T15:07:38.802Z,101179.06
2022-10-19T15:10:17.706Z,101171.22
2022-10-19T15:12:47.876Z,101169.31
2022-10-19T15:15:29.474Z,101165.47
2022-10-19T15:18:06.585Z,101169.47
2022-10-19T15:20:44.181Z,101165.25
2022-10-19T15:23:45.042Z,101166.72
2022-10-19T15:26:26.680Z,101162.03
2022-10-19T15:28:55.040Z,101160.78
2022-10-19T15:31:28.320Z,101165.00
2022-10-19T15:33:57.833Z,101149.53
2022-10-19T15:36:25.737Z,101140.41
2022-10-19T15:39:06.292Z,101132.75
2022-10-19T15:41:44.933Z,101134.41
2022-10-19T15:44:34.099Z,101134.84
2022-10-19T15:47:15.688Z,101139.91
2022-10-19T15:49:43.157Z,101130.59
2022-10-19T15:52:42.406Z,101134.38
2022-10-19T15:55:11.993Z,101133.94
2022-10-19T15:57:40.811Z,101139.19
2022-10-19T16:00:15.076Z,101131.38
2022-10-19T16:02:41.526Z,101129.22
2022-10-19T16:05:08.590Z,101125.00
2022-10-19T16:07:38.834Z,101123.88
2022-10-19T16:10:06.440Z,101124.50
2022-10-19T16:12:32.863Z,101120.69
2022-10-19T16:14:59.365Z,101129.97
2022-10-19T16:17:28.068Z,101125.28
2022-10-19T16:19:54.423Z,101119.78
2022-10-19T16:22:20.928Z,101125.00
2022-10-19T16:24:47.340Z,101120.09
2022-10-19T16:27:16.985Z,101124.25
2022-10-19T16:29:44.557Z,101126.09
2022-10-19T16:32:11.109Z,101119.47
2022-10-19T16:34:37.984Z,101117.53
2022-10-19T16:37:06.861Z,101128.88
2022-10-19T16:39:33.895Z,101117.69
2022-10-19T16:42:00.249Z,101118.84
2022-10-19T16:44:26.691Z,101120.75
2022-10-19T16:46:53.127Z,101124.03
2022-10-19T16:49:19.497Z,101120.97
2022-10-19T16:51:46.589Z,101116.34
2022-10-19T16:54:15.525Z,101106.59
2022-10-19T16:56:45.174Z,101112.09
2022-10-19T16:59:17.469Z,101110.38
2022-10-19T17:01:45.641Z,101123.22
2022-10-19T17:04:19.069Z,101117.72
2022-10-19T17:06:46.357Z,101116.81
2022-10-19T17:11:59.657Z,101121.09
2022-10-19T17:14:26.059Z,101122.75
2022-10-19T17:16:52.452Z,101119.53
2022-10-19T17:19:21.483Z,101119.53
2022-10-19T17:21:49.445Z,101116.91
2022-10-19T17:24:24.541Z,101106.91
2022-10-19T17:26:52.728Z,101107.88
2022-10-19T17:29:20.324Z,101113.31
2022-10-19T17:31:48.216Z,101102.91
2022-10-19T17:34:15.247Z,101111.56
2022-10-19T17:36:44.693Z,101111.88
2022-10-19T17:39:19.105Z,101123.13
2022-10-19T17:41:48.834Z,101120.41
2022-10-19T17:44:16.331Z,101123.44
2022-10-19T17:46:46.006Z,101120.81
2022-10-19T17:49:16.391Z,101121.94
2022-10-19T17:51:43.517Z,101116.19
2022-10-19T17:54:15.965Z,101117.50
2022-10-19T17:56:45.094Z,101124.97
2022-10-19T17:59:11.945Z,101132.78
2022-10-19T18:01:38.460Z,101130.59
2022-10-19T18:04:05.291Z,101121.06
2022-10-19T18:06:34.208Z,101128.78
2022-10-19T18:09:02.886Z,101124.72
2022-10-19T18:11:32.397Z,101123.69
2022-10-19T18:14:00.680Z,101119.50
2022-10-19T18:16:41.905Z,101125.56
2022-10-19T18:19:08.587Z,101111.94
2022-10-19T18:21:41.265Z,101123.31
2022-10-19T18:24:14.334Z,101122.84
2022-10-19T18:26:42.426Z,101128.50
2022-10-19T18:29:12.886Z,101131.94
2022-10-19T18:31:40.198Z,101131.06
2022-10-19T18:34:08.961Z,101122.84
2022-10-19T18:36:35.454Z,101120.28
2022-10-19T18:39:04.121Z,101116.50
2022-10-19T18:41:30.923Z,101117.75
2022-10-19T18:44:03.229Z,101110.56
2022-10-19T18:46:30.150Z,101113.56
2022-10-19T18:48:59.459Z,101105.53
2022-10-19T18:51:28.573Z,101108.47
2022-10-19T18:53:57.849Z,101109.13
2022-10-19T18:56:24.685Z,101113.31
2022-10-19T18:58:52.557Z,101101.88
2022-10-19T19:01:24.103Z,101104.16
2022-10-19T19:03:53.480Z,101095.06
2022-10-19T19:06:25.059Z,101097.25
2022-10-19T19:08:54.784Z,101097.63
2022-10-19T19:11:26.544Z,101090.09
2022-10-19T19:13:59.584Z,101092.94
2022-10-19T19:16:27.234Z,101097.69
2022-10-19T19:18:54.661Z,101093.81
2022-10-19T19:21:24.661Z,101085.97
2022-10-19T19:23:54.841Z,101091.00
2022-10-19T19:26:23.137Z,101095.06
2022-10-19T19:28:51.842Z,101095.81
2022-10-19T19:31:18.545Z,101077.84
2022-10-19T19:33:46.190Z,101077.00
2022-10-19T19:36:15.435Z,101068.13
2022-10-19T19:38:42.036Z,101071.25
2022-10-19T19:41:12.194Z,101066.31
2022-10-19T19:43:39.471Z,101058.50
2022-10-19T19:46:14.882Z,101065.41
2022-10-19T19:48:43.440Z,101054.03
2022-10-19T19:51:20.751Z,101060.28
2022-10-19T19:53:48.511Z,101053.28
2022-10-19T19:56:17.780Z,101048.66
2022-10-19T19:58:45.168Z,101051.47
2022-10-19T20:01:19.363Z,101045.75
2022-10-19T20:03:46.600Z,101038.28
2022-10-19T20:06:19.595Z,101048.66
2022-10-19T20:08:49.352Z,101050.16
2022-10-19T20:11:18.127Z,101033.00
2022-10-19T20:13:45.771Z,101045.00
2022-10-19T20:16:15.994Z,101038.59
2022-10-19T20:18:47.574Z,101035.84
2022-10-19T20:21:14.699Z,101038.84
2022-10-19T20:23:45.508Z,101037.06
2022-10-19T20:26:21.436Z,101044.78
2022-10-19T20:28:50.891Z,101033.47
2022-10-19T20:31:19.468Z,101039.25
2022-10-19T20:33:49.671Z,101037.88
2022-10-19T20:36:19.603Z,101038.75
2022-10-19T20:38:48.723Z,101038.28
2022-10-19T20:41:15.896Z,101038.03
2022-10-19T20:43:42.385Z,101031.59
2022-10-19T20:46:12.502Z,101035.00
2022-10-19T20:48:41.459Z,101033.38
2022-10-19T20:51:14.617Z,101032.03
2022-10-19T20:53:45.054Z,101031.41
2022-10-19T20:56:13.441Z,101028.47
2022-10-19T20:58:42.530Z,101033.88
2022-10-19T21:01:14.011Z,101021.97
2022-10-19T21:03:50.417Z,101023.84
2022-10-19T21:06:16.770Z,101025.38
2022-10-19T21:08:43.290Z,101021.34
2022-10-19T21:11:22.193Z,101021.97
2022-10-19T21:13:55.382Z,101014.44
2022-10-19T21:16:23.710Z,101013.38
2022-10-19T21:18:53.716Z,101024.06
2022-10-19T21:21:32.556Z,101025.78
2022-10-19T21:24:05.407Z,101018.31
2022-10-19T21:26:33.841Z,101025.22
2022-10-19T21:29:01.040Z,101020.97
2022-10-19T21:31:30.422Z,101019.25
2022-10-19T21:33:57.654Z,101018.97
2022-10-19T21:36:27.446Z,101013.78
2022-10-19T21:38:53.859Z,101010.09
2022-10-19T21:41:26.205Z,101013.69
2022-10-19T21:43:53.399Z,101001.22
2022-10-19T21:46:21.431Z,100994.50
2022-10-19T21:48:48.634Z,100996.38
2022-10-19T21:51:27.294Z,100996.66
2022-10-19T21:53:53.862Z,100999.34
2022-10-19T21:56:21.141Z,100987.41
2022-10-19T21:58:51.236Z,100995.03
2022-10-19T22:01:19.773Z,100990.81
2022-10-19T22:03:48.507Z,100990.81
2022-10-19T22:06:15.302Z,100986.34
2022-10-19T22:08:47.601Z,100982.59
2022-10-19T22:11:19.247Z,100991.66
2022-10-19T22:13:46.190Z,100985.97
2022-10-19T22:16:18.917Z,100980.63
2022-10-19T22:18:46.332Z,100975.59
2022-10-19T22:21:16.066Z,100978.84
2022-10-19T22:23:43.111Z,100970.28
2022-10-19T22:26:14.798Z,100964.13
2022-10-19T22:28:41.581Z,100970.28
2022-10-19T22:31:08.461Z,100966.69
2022-10-19T22:33:35.098Z,100963.13
2022-10-19T22:36:03.214Z,100957.25
2022-10-19T22:38:29.713Z,100961.38
2022-10-19T22:40:56.134Z,100951.59
2022-10-19T22:43:24.810Z,100934.94
2022-10-19T22:45:52.042Z,100937.50
2022-10-19T22:48:18.958Z,100925.72
2022-10-19T22:50:46.111Z,100928.84
2022-10-19T22:53:13.411Z,100916.91
2022-10-19T22:55:39.916Z,100921.88
2022-10-19T22:58:08.806Z,100911.72
2022-10-19T23:00:35.657Z,100916.19
2022-10-19T23:03:02.233Z,100915.22
2022-10-19T23:05:31.197Z,100909.47
2022-10-19T23:07:57.589Z,100898.72
2022-10-19T23:10:26.468Z,100909.47
2022-10-19T23:12:53.854Z,100903.97
2022-10-19T23:15:21.895Z,100908.03
2022-10-19T23:17:48.274Z,100903.41
2022-10-19T23:20:15.132Z,100896.22
2022-10-19T23:22:41.935Z,100895.41
2022-10-19T23:25:09.163Z,100893.63
2022-10-19T23:27:35.817Z,100889.66
2022-10-19T23:30:04.340Z,100883.25
2022-10-19T23:32:30.886Z,100876.91
2022-10-19T23:34:57.224Z,100880.19
2022-10-19T23:37:23.630Z,100878.88
2022-10-19T23:39:49.968Z,100875.97
2022-10-19T23:42:18.720Z,100878.25
2022-10-19T23:44:45.927Z,100876.25
2022-10-19T23:47:12.314Z,100873.59
2022-10-19T23:49:38.764Z,100869.84
2022-10-19T23:52:06.352Z,100860.00
2022-10-19T23:54:32.742Z,100860.78
2022-10-19T23:57:01.657Z,100861.72
2022-10-19T23:59:30.710Z,100862.06
